Time;durP1;ratioP1;P1;durP2;ratioP2;P2;SDS_P1;SDS_P2;PMS_P1;PMS_P2;Temp;Humidity;BMP_temperature;BMP_pressure;BME280_temperature;BME280_humidity;BME280_pressure;Samples;Min_cycle;Max_cycle;Signal;HPM_P1;HPM_P2
2023/05/13 00:01:37;;;;;;;34.40;21.50;;;;;;;6.12;100.00;101002.71;109262;1252;62220;-54
2023/05/13 00:04:05;;;;;;;30.80;19.70;;;;;;;6.09;100.00;101004.50;109288;1253;74826;-54
2023/05/13 00:06:33;;;;;;;28.80;20.00;;;;;;;6.05;100.00;101004.11;109161;1253;68971;-54
2023/05/13 00:09:00;;;;;;;31.60;18.80;;;;;;;6.02;100.00;101003.89;109210;1253;74172;-54
2023/05/13 00:11:27;;;;;;;26.50;18.50;;;;;;;5.99;100.00;101001.27;109259;1253;61176;-53
2023/05/13 00:13:54;;;;;;;30.60;19.90;;;;;;;5.92;100.00;100998.57;109194;1253;61510;-53
2023/05/13 00:16:24;;;;;;;28.30;20.60;;;;;;;5.84;100.00;100998.92;109136;1252;75326;-53
2023/05/13 00:18:51;;;;;;;29.70;19.40;;;;;;;5.74;100.00;101000.43;109171;1253;69222;-54
2023/05/13 00:21:18;;;;;;;34.10;22.60;;;;;;;5.66;100.00;101003.05;109220;1253;74759;-53
2023/05/13 00:23:45;;;;;;;38.70;23.00;;;;;;;5.59;100.00;101007.06;109281;1253;62551;-53
2023/05/13 00:26:12;;;;;;;36.00;21.70;;;;;;;5.54;100.00;101006.63;109281;1253;61478;-53
2023/05/13 00:28:39;;;;;;;33.80;20.80;;;;;;;5.49;100.00;101004.48;109282;1253;75162;-57
2023/05/13 00:31:08;;;;;;;32.80;20.90;;;;;;;5.47;100.00;101007.96;109209;1253;67814;-57
2023/05/13 00:33:36;;;;;;;37.70;22.60;;;;;;;5.47;100.00;101008.67;109327;1253;73049;-53
2023/05/13 00:36:03;;;;;;;34.90;20.10;;;;;;;5.49;100.00;101006.95;109258;1253;61867;-54
2023/05/13 00:38:31;;;;;;;26.80;17.30;;;;;;;5.49;100.00;101003.80;109272;1253;61102;-54
2023/05/13 00:40:58;;;;;;;27.10;18.20;;;;;;;5.49;100.00;101008.69;109110;1253;74976;-55
2023/05/13 00:43:26;;;;;;;32.30;20.50;;;;;;;5.48;100.00;101010.14;109169;1253;69342;-53
2023/05/13 00:45:53;;;;;;;32.30;20.20;;;;;;;5.46;100.00;101010.30;109253;1252;73874;-54
2023/05/13 00:48:20;;;;;;;32.00;19.50;;;;;;;5.44;100.00;101016.33;109281;1253;60408;-54
2023/05/13 00:50:47;;;;;;;29.50;18.80;;;;;;;5.43;100.00;101011.46;109107;1253;60933;-55
2023/05/13 00:53:15;;;;;;;31.00;19.10;;;;;;;5.43;100.00;101014.36;109001;1253;74057;-53
2023/05/13 00:55:43;;;;;;;26.80;18.60;;;;;;;5.42;100.00;101015.11;109231;1253;67974;-53
2023/05/13 00:58:10;;;;;;;27.10;17.30;;;;;;;5.41;100.00;101014.35;109012;1253;73380;-53
2023/05/13 01:01:05;;;;;;;30.40;18.30;;;;;;;5.40;100.00;101014.92;109167;1252;61022;-55
2023/05/13 01:03:38;;;;;;;25.80;17.80;;;;;;;5.36;100.00;101018.40;109303;1253;62428;-54
2023/05/13 01:06:12;;;;;;;29.50;17.30;;;;;;;5.31;100.00;101015.90;109159;1252;74988;-54
2023/05/13 01:09:06;;;;;;;26.60;17.30;;;;;;;5.26;100.00;101020.79;109070;1252;68284;-53
2023/05/13 01:11:36;;;;;;;25.80;17.20;;;;;;;5.22;100.00;101024.38;109228;1253;74883;-56
2023/05/13 01:14:15;;;;;;;24.20;16.70;;;;;;;5.19;100.00;101023.44;109115;1252;61117;-54
2023/05/13 01:16:52;;;;;;;25.20;16.90;;;;;;;5.13;100.00;101020.50;108985;1253;59990;-54
2023/05/13 01:19:26;;;;;;;24.40;16.80;;;;;;;5.06;100.00;101019.13;108988;1254;76569;-53
2023/05/13 01:21:53;;;;;;;25.20;16.40;;;;;;;5.01;100.00;101023.38;109173;1252;68262;-53
2023/05/13 01:24:21;;;;;;;24.60;16.60;;;;;;;4.97;100.00;101025.15;109235;1253;73900;-54
2023/05/13 01:26:48;;;;;;;26.50;17.80;;;;;;;4.93;100.00;101020.14;109184;1252;61517;-54
2023/05/13 01:29:15;;;;;;;25.30;17.50;;;;;;;4.87;100.00;101022.46;109072;1253;60794;-54
2023/05/13 01:31:42;;;;;;;25.60;16.60;;;;;;;4.83;100.00;101020.41;108969;1252;74880;-54
2023/05/13 01:34:10;;;;;;;24.80;16.90;;;;;;;4.80;100.00;101020.97;109258;1253;69086;-58
2023/05/13 01:36:38;;;;;;;25.20;17.40;;;;;;;4.79;100.00;101020.40;109297;1252;73934;-54
2023/05/13 01:39:06;;;;;;;24.60;15.90;;;;;;;4.81;100.00;101021.61;108965;1253;61232;-54
2023/05/13 01:41:33;;;;;;;24.60;16.60;;;;;;;4.82;100.00;101026.19;109235;1253;62371;-55
2023/05/13 01:44:01;;;;;;;22.10;15.60;;;;;;;4.82;100.00;101026.67;109318;1252;74849;-58
2023/05/13 01:46:28;;;;;;;25.70;16.60;;;;;;;4.82;100.00;101030.34;109168;1252;69495;-53
2023/05/13 01:48:55;;;;;;;26.20;16.00;;;;;;;4.81;100.00;101036.26;109342;1253;74575;-58
2023/05/13 01:51:22;;;;;;;24.60;15.50;;;;;;;4.80;100.00;101041.13;109121;1254;64046;-53
2023/05/13 01:53:49;;;;;;;25.40;16.40;;;;;;;4.80;100.00;101042.73;109174;1252;62624;-54
2023/05/13 01:56:16;;;;;;;26.50;17.40;;;;;;;4.81;100.00;101040.41;109215;1252;73906;-58
2023/05/13 01:58:43;;;;;;;23.10;17.00;;;;;;;4.82;100.00;101038.23;109223;1253;67649;-53
2023/05/13 02:01:10;;;;;;;25.60;16.40;;;;;;;4.85;100.00;101037.52;109178;1252;74030;-54
2023/05/13 02:03:37;;;;;;;20.80;15.20;;;;;;;4.92;100.00;101042.42;109273;1252;62604;-54
2023/05/13 02:06:05;;;;;;;22.20;14.90;;;;;;;4.99;100.00;101045.92;109279;1252;61396;-54
2023/05/13 02:08:32;;;;;;;23.90;15.70;;;;;;;5.08;100.00;101046.08;109276;1252;74558;-54
2023/05/13 02:10:59;;;;;;;21.90;15.80;;;;;;;5.19;100.00;101043.27;109167;1253;67150;-57
2023/05/13 02:13:27;;;;;;;26.20;16.00;;;;;;;5.28;100.00;101043.34;109174;1253;73655;-53
2023/05/13 02:15:54;;;;;;;22.00;15.00;;;;;;;5.36;100.00;101040.98;109296;1252;60554;-53
2023/05/13 02:18:22;;;;;;;23.50;15.40;;;;;;;5.40;100.00;101037.21;109248;1252;61053;-54
2023/05/13 02:20:49;;;;;;;26.60;16.20;;;;;;;5.43;100.00;101038.16;109120;1254;76278;-54
2023/05/13 02:23:16;;;;;;;24.30;15.50;;;;;;;5.49;100.00;101036.77;109195;1252;68041;-54
2023/05/13 02:25:43;;;;;;;25.70;16.30;;;;;;;5.58;100.00;101037.50;109310;1252;73376;-53
2023/05/13 02:28:10;;;;;;;23.60;16.20;;;;;;;5.71;100.00;101038.84;109254;1253;61593;-54
2023/05/13 02:30:37;;;;;;;22.40;16.90;;;;;;;5.84;100.00;101038.92;109277;1253;61239;-58
2023/05/13 02:33:05;;;;;;;25.20;17.10;;;;;;;5.95;100.00;101038.67;109142;1253;75967;-56
2023/05/13 02:35:32;;;;;;;25.40;16.70;;;;;;;6.06;100.00;101037.95;109244;1253;68031;-54
2023/05/13 02:38:02;;;;;;;22.70;15.60;;;;;;;6.20;100.00;101032.73;109239;1252;73797;-53
2023/05/13 02:40:30;;;;;;;24.10;15.00;;;;;;;6.36;100.00;101032.30;109230;1253;63940;-53
2023/05/13 02:42:58;;;;;;;25.20;17.80;;;;;;;6.55;100.00;101033.17;109115;1253;61257;-58
2023/05/13 02:45:30;;;;;;;25.90;16.70;;;;;;;6.75;100.00;101026.55;109235;1253;75868;-53
2023/05/13 02:47:57;;;;;;;21.40;15.60;;;;;;;6.92;100.00;101027.92;109343;1253;68555;-54
2023/05/13 02:50:25;;;;;;;22.00;15.20;;;;;;;7.09;100.00;101029.20;109308;1253;74898;-55
2023/05/13 02:52:52;;;;;;;24.30;15.80;;;;;;;7.30;100.00;101030.88;109124;1252;64091;-56
2023/05/13 02:55:19;;;;;;;22.10;14.90;;;;;;;7.55;100.00;101042.04;109246;1252;62069;-54
2023/05/13 02:57:46;;;;;;;21.30;15.30;;;;;;;7.85;100.00;101046.71;109209;1253;75730;-54
2023/05/13 03:00:14;;;;;;;20.80;15.10;;;;;;;8.15;100.00;101037.28;109176;1253;68076;-54
2023/05/13 03:02:41;;;;;;;24.30;16.20;;;;;;;8.67;100.00;101033.61;109085;1253;73730;-57
2023/05/13 03:05:08;;;;;;;22.10;17.20;;;;;;;9.40;100.00;101031.58;109236;1252;63240;-54
2023/05/13 03:07:36;;;;;;;21.00;15.80;;;;;;;10.24;100.00;101029.92;109311;1252;62141;-55
2023/05/13 03:10:04;;;;;;;21.30;16.30;;;;;;;11.15;100.00;101025.95;109311;1252;75781;-54
2023/05/13 03:12:31;;;;;;;19.40;14.70;;;;;;;12.02;100.00;101014.48;109243;1252;69150;-54
2023/05/13 03:14:58;;;;;;;18.80;14.20;;;;;;;12.86;100.00;101005.85;109201;1253;73663;-54
2023/05/13 03:17:25;;;;;;;16.50;13.20;;;;;;;13.72;100.00;101004.23;109153;1254;60432;-55
2023/05/13 03:19:52;;;;;;;22.60;14.10;;;;;;;14.64;100.00;100996.29;109259;1252;61244;-54
2023/05/13 03:22:20;;;;;;;16.20;14.30;;;;;;;15.55;100.00;100986.17;109317;1253;73847;-54
2023/05/13 03:24:47;;;;;;;21.00;14.50;;;;;;;16.43;100.00;100984.61;109265;1252;68944;-55
2023/05/13 03:27:14;;;;;;;18.70;15.10;;;;;;;17.26;100.00;100986.59;109110;1254;73653;-55
2023/05/13 03:29:42;;;;;;;20.90;15.40;;;;;;;17.97;100.00;100986.52;109229;1254;61463;-54
2023/05/13 03:32:09;;;;;;;16.50;13.80;;;;;;;18.59;100.00;100981.42;109283;1252;61501;-54
2023/05/13 03:34:36;;;;;;;18.20;14.00;;;;;;;19.20;100.00;100982.11;109230;1253;74959;-54
2023/05/13 03:37:04;;;;;;;16.40;14.40;;;;;;;19.55;100.00;100986.96;109180;1253;69005;-58
2023/05/13 03:39:31;;;;;;;17.80;13.90;;;;;;;19.64;98.19;100988.41;109199;1252;75330;-54
2023/05/13 03:41:58;;;;;;;15.80;13.50;;;;;;;19.71;90.56;100984.62;109254;1253;61182;-55
2023/05/13 03:44:25;;;;;;;15.80;13.30;;;;;;;19.86;86.46;100987.38;109176;1253;62380;-54
2023/05/13 03:46:52;;;;;;;15.00;13.00;;;;;;;20.17;81.64;100992.15;109177;1253;75032;-58
2023/05/13 03:49:19;;;;;;;16.70;12.20;;;;;;;20.47;72.31;100991.65;109211;1253;69172;-55
2023/05/13 03:51:46;;;;;;;17.70;12.90;;;;;;;20.77;62.82;100993.56;109206;1254;72846;-54
2023/05/13 03:54:14;;;;;;;16.60;13.20;;;;;;;21.41;57.45;100988.84;109175;1254;62460;-55
2023/05/13 03:56:41;;;;;;;15.80;13.40;;;;;;;22.17;53.43;100987.98;109213;1252;61311;-54
2023/05/13 03:59:08;;;;;;;14.90;13.20;;;;;;;22.81;50.24;100985.11;109189;1253;75953;-54
2023/05/13 04:01:35;;;;;;;16.90;13.30;;;;;;;23.45;46.91;100982.43;109147;1254;67904;-55
2023/05/13 04:04:02;;;;;;;14.20;12.80;;;;;;;23.92;44.02;100983.59;109213;1253;75358;-55
2023/05/13 04:06:30;;;;;;;15.60;14.00;;;;;;;24.44;41.57;100981.95;109163;1252;62249;-55
2023/05/13 04:08:57;;;;;;;16.70;13.40;;;;;;;25.00;39.37;100981.06;109323;1253;61973;-55
2023/05/13 04:11:24;;;;;;;14.60;13.10;;;;;;;25.48;38.60;100980.57;109087;1252;75671;-55
2023/05/13 04:13:53;;;;;;;15.60;13.80;;;;;;;26.06;37.04;100978.69;109246;1252;69253;-55
2023/05/13 04:16:21;;;;;;;14.90;13.20;;;;;;;26.61;35.30;100984.92;109163;1252;73877;-55
2023/05/13 04:18:48;;;;;;;15.50;14.00;;;;;;;27.05;33.97;100983.91;109110;1258;61099;-56
2023/05/13 04:21:15;;;;;;;15.80;14.20;;;;;;;27.09;32.55;100991.76;109157;1252;62384;-59
2023/05/13 04:23:42;;;;;;;17.00;13.90;;;;;;;26.58;32.68;100992.21;109232;1253;76028;-54
2023/05/13 04:26:10;;;;;;;17.20;14.30;;;;;;;26.29;33.00;100989.19;109179;1254;68591;-55
2023/05/13 04:28:37;;;;;;;18.40;13.60;;;;;;;26.16;32.76;100995.26;109178;1252;75067;-54
2023/05/13 04:31:04;;;;;;;14.90;13.40;;;;;;;25.91;32.89;100994.25;109081;1254;62552;-58
2023/05/13 04:33:34;;;;;;;17.50;13.90;;;;;;;25.95;33.25;100990.71;109061;1256;61058;-55
2023/05/13 04:36:02;;;;;;;14.90;13.30;;;;;;;26.27;33.05;100992.35;109138;1254;76146;-55
2023/05/13 04:38:30;;;;;;;15.00;13.40;;;;;;;26.54;32.58;100997.63;109071;1253;68649;-55
2023/05/13 04:40:57;;;;;;;15.10;13.60;;;;;;;26.55;32.18;101000.24;109231;1253;74905;-55
2023/05/13 04:43:32;;;;;;;14.90;13.20;;;;;;;26.32;32.35;100995.23;109158;1254;62842;-55
2023/05/13 04:46:00;;;;;;;15.70;13.40;;;;;;;26.15;32.56;100997.14;109109;1254;61740;-55
2023/05/13 04:48:27;;;;;;;16.00;13.70;;;;;;;26.17;32.53;100997.61;109176;1253;75831;-55
2023/05/13 04:50:57;;;;;;;14.80;13.40;;;;;;;26.30;32.56;100996.52;109122;1253;67738;-55
2023/05/13 04:53:24;;;;;;;17.30;14.10;;;;;;;26.53;32.44;101000.45;109087;1254;73602;-54
2023/05/13 04:55:59;;;;;;;15.10;13.50;;;;;;;26.80;32.40;100998.50;109221;1253;62461;-53
2023/05/13 04:58:27;;;;;;;16.70;13.50;;;;;;;27.03;31.96;100992.69;109233;1252;61063;-55
2023/05/13 05:00:56;;;;;;;18.30;14.00;;;;;;;27.16;32.07;100988.20;109217;1254;76306;-57
2023/05/13 05:03:23;;;;;;;15.10;13.50;;;;;;;27.38;31.75;100990.48;109269;1252;68367;-56
2023/05/13 05:05:51;;;;;;;14.10;12.60;;;;;;;27.48;31.58;100993.27;109151;1254;73710;-56
2023/05/13 05:08:18;;;;;;;14.70;13.20;;;;;;;27.68;31.62;100988.24;109225;1253;61183;-56
2023/05/13 05:10:46;;;;;;;15.30;12.00;;;;;;;27.95;31.59;100987.19;109203;1253;60905;-54
2023/05/13 05:13:14;;;;;;;14.30;12.90;;;;;;;28.41;31.13;100985.05;109185;1253;75852;-60
2023/05/13 05:15:42;;;;;;;15.50;12.80;;;;;;;28.70;30.69;100987.79;109213;1252;68006;-55
2023/05/13 05:18:09;;;;;;;14.00;11.00;;;;;;;28.86;30.27;100985.17;109254;1252;73752;-56
2023/05/13 05:20:38;;;;;;;13.50;11.90;;;;;;;29.23;30.30;100986.48;109245;1254;61982;-55
2023/05/13 05:23:09;;;;;;;13.40;11.80;;;;;;;29.46;29.66;100984.33;109182;1253;61249;-60
2023/05/13 05:25:37;;;;;;;17.50;13.20;;;;;;;29.46;29.54;100989.60;109227;1254;74309;-56
2023/05/13 05:28:04;;;;;;;13.80;12.40;;;;;;;29.49;29.60;100989.60;109222;1254;69895;-56
2023/05/13 05:30:38;;;;;;;14.10;11.80;;;;;;;29.63;29.43;100988.64;109134;1253;74761;-57
2023/05/13 05:33:10;;;;;;;13.40;11.70;;;;;;;30.07;29.07;100989.28;108850;1254;61471;-60
2023/05/13 05:35:38;;;;;;;14.40;12.90;;;;;;;30.67;28.78;100988.55;109115;1254;62124;-56
2023/05/13 05:38:07;;;;;;;13.30;11.90;;;;;;;31.17;27.85;100992.84;109153;1253;76019;-56
2023/05/13 05:40:36;;;;;;;14.90;11.70;;;;;;;31.67;27.38;100993.13;109281;1252;69030;-57
2023/05/13 05:43:03;;;;;;;12.30;11.00;;;;;;;32.14;26.74;100987.84;108889;1259;74690;-61
2023/05/13 05:45:30;;;;;;;13.00;10.90;;;;;;;32.29;26.34;100990.54;109292;1253;62648;-56
2023/05/13 05:47:58;;;;;;;12.70;10.00;;;;;;;32.32;25.95;100991.36;109087;1253;61179;-56
2023/05/13 05:50:25;;;;;;;12.00;9.90;;;;;;;32.40;25.79;100991.27;109220;1253;75642;-57
2023/05/13 05:52:52;;;;;;;15.30;11.10;;;;;;;32.38;25.53;100991.93;109082;1254;68395;-57
2023/05/13 05:55:19;;;;;;;10.80;9.30;;;;;;;32.48;25.69;100992.50;109108;1257;73344;-56
2023/05/13 05:57:46;;;;;;;11.90;9.40;;;;;;;32.45;25.30;100996.68;109175;1253;62129;-56
2023/05/13 06:00:14;;;;;;;10.30;8.70;;;;;;;32.18;25.13;100998.20;109052;1254;62263;-56
2023/05/13 06:02:41;;;;;;;12.30;8.70;;;;;;;32.00;25.29;101002.13;109201;1253;74335;-56
2023/05/13 06:05:09;;;;;;;10.90;7.90;;;;;;;32.10;25.13;101001.88;108985;1255;69721;-57
2023/05/13 06:07:37;;;;;;;11.60;8.70;;;;;;;32.06;24.92;101002.83;108968;1256;75357;-57
2023/05/13 06:10:05;;;;;;;11.30;7.90;;;;;;;31.91;24.70;101005.96;109090;1254;61059;-57
2023/05/13 06:12:34;;;;;;;11.80;8.30;;;;;;;31.89;24.83;101001.52;108987;1253;60992;-56
2023/05/13 06:15:01;;;;;;;12.10;7.70;;;;;;;31.70;24.99;101000.95;109048;1253;74835;-56
2023/05/13 06:17:28;;;;;;;9.40;7.30;;;;;;;31.73;24.85;101002.70;109044;1253;68523;-61
2023/05/13 06:19:57;;;;;;;8.70;7.30;;;;;;;31.78;24.18;100999.63;108978;1253;73918;-56
2023/05/13 06:22:24;;;;;;;9.10;7.40;;;;;;;31.82;24.13;100996.84;109055;1253;62388;-56
2023/05/13 06:24:51;;;;;;;8.80;6.80;;;;;;;31.97;24.15;100999.50;109000;1254;61978;-56
2023/05/13 06:27:18;;;;;;;9.30;5.80;;;;;;;32.07;23.70;100999.67;108934;1254;75973;-56
2023/05/13 06:29:45;;;;;;;8.10;6.10;;;;;;;32.19;22.89;100995.63;108959;1254;69522;-56
2023/05/13 06:32:12;;;;;;;9.30;5.40;;;;;;;32.12;22.82;100998.14;109008;1254;74804;-55
2023/05/13 06:34:44;;;;;;;7.20;4.30;;;;;;;32.22;22.21;100994.05;109033;1254;62399;-55
2023/05/13 06:37:14;;;;;;;4.80;3.80;;;;;;;32.30;21.62;100985.79;108934;1253;58743;-56
2023/05/13 06:39:42;;;;;;;5.90;4.30;;;;;;;32.35;21.27;100990.14;108950;1253;75976;-60
2023/05/13 06:42:09;;;;;;;4.80;3.40;;;;;;;32.05;21.00;100991.98;109005;1253;60895;-55
2023/05/13 06:44:43;;;;;;;5.50;3.80;;;;;;;31.51;20.98;100995.06;108987;1253;75199;-56
2023/05/13 06:47:14;;;;;;;7.60;3.50;;;;;;;30.96;21.39;100997.49;109025;1253;61292;-55
2023/05/13 06:49:42;;;;;;;5.40;3.90;;;;;;;30.48;21.93;100996.29;109050;1255;61211;-60
2023/05/13 06:52:09;;;;;;;5.20;3.10;;;;;;;30.33;22.05;100994.42;108969;1254;74960;-56
2023/05/13 06:54:36;;;;;;;4.90;3.40;;;;;;;30.15;21.90;100995.05;109024;1254;67966;-55
2023/05/13 06:57:04;;;;;;;4.10;3.10;;;;;;;29.85;21.69;100995.67;108965;1254;74879;-57
2023/05/13 06:59:32;;;;;;;4.20;3.40;;;;;;;29.68;21.57;100996.44;109010;1255;62722;-54
2023/05/13 07:01:59;;;;;;;9.40;3.10;;;;;;;29.69;21.99;100992.70;109065;1254;62794;-55
2023/05/13 07:04:28;;;;;;;5.50;3.40;;;;;;;29.87;21.92;100993.94;109077;1253;76034;-55
2023/05/13 07:06:56;;;;;;;5.70;3.60;;;;;;;29.94;22.07;100994.23;109205;1253;68054;-55
2023/05/13 07:09:23;;;;;;;4.20;3.00;;;;;;;29.74;21.89;100992.90;109192;1253;74770;-55
2023/05/13 07:11:50;;;;;;;3.90;2.70;;;;;;;29.42;21.63;100988.58;109199;1253;61391;-56
2023/05/13 07:14:17;;;;;;;3.90;2.70;;;;;;;29.29;21.56;100992.38;109297;1253;62631;-56
2023/05/13 07:16:44;;;;;;;4.00;2.50;;;;;;;29.18;21.32;100985.05;109292;1253;76185;-54
2023/05/13 07:19:11;;;;;;;3.80;2.20;;;;;;;29.06;20.36;100984.52;109301;1253;69158;-55
2023/05/13 07:21:38;;;;;;;4.70;2.90;;;;;;;28.78;20.94;100982.54;109106;1254;73480;-57
2023/05/13 07:24:05;;;;;;;7.00;2.60;;;;;;;28.58;21.65;100979.52;109254;1253;61408;-55
2023/05/13 07:26:32;;;;;;;4.10;2.90;;;;;;;28.24;22.19;100980.72;109277;1253;61471;-55
2023/05/13 07:29:00;;;;;;;4.80;2.60;;;;;;;27.89;22.12;100985.05;109296;1253;75818;-54
2023/05/13 07:31:29;;;;;;;3.10;2.40;;;;;;;27.65;22.02;100986.45;109280;1252;68737;-60
2023/05/13 07:33:56;;;;;;;3.60;2.70;;;;;;;27.39;22.13;100983.79;109014;1253;74510;-60
2023/05/13 07:36:23;;;;;;;3.70;2.20;;;;;;;27.32;22.01;100983.18;109305;1253;62831;-56
2023/05/13 07:38:50;;;;;;;3.50;2.60;;;;;;;27.08;22.36;100979.87;109248;1252;61273;-55
2023/05/13 07:41:17;;;;;;;3.90;2.60;;;;;;;26.65;22.87;100981.55;109184;1252;75195;-55
2023/05/13 07:43:44;;;;;;;3.60;2.40;;;;;;;26.21;23.56;100983.38;109133;1252;68114;-60
2023/05/13 07:46:12;;;;;;;4.10;2.50;;;;;;;25.91;24.09;100978.02;109305;1253;75459;-61
2023/05/13 07:48:39;;;;;;;6.50;2.50;;;;;;;25.80;24.41;100975.66;109332;1253;62219;-55
2023/05/13 07:51:06;;;;;;;3.60;2.70;;;;;;;25.73;24.78;100976.64;109319;1253;62165;-55
2023/05/13 07:53:35;;;;;;;3.30;2.40;;;;;;;25.59;25.13;100971.82;109206;1252;75486;-61
2023/05/13 07:56:02;;;;;;;4.60;2.10;;;;;;;25.43;25.90;100972.92;109266;1253;69177;-56
2023/05/13 07:58:29;;;;;;;4.10;1.90;;;;;;;25.37;25.57;100972.97;109217;1253;73548;-56
2023/05/13 08:00:56;;;;;;;2.90;2.00;;;;;;;25.36;25.10;100973.29;109241;1253;61829;-56
2023/05/13 08:03:24;;;;;;;5.20;1.90;;;;;;;25.54;24.10;100966.80;109297;1253;62593;-54
2023/05/13 08:05:51;;;;;;;4.00;2.10;;;;;;;25.69;24.10;100966.71;109274;1253;76237;-54
2023/05/13 08:08:18;;;;;;;5.30;2.30;;;;;;;25.60;24.39;100965.38;109309;1253;69296;-55
2023/05/13 08:10:45;;;;;;;3.70;2.10;;;;;;;25.45;24.37;100965.09;109280;1253;75232;-54
2023/05/13 08:13:12;;;;;;;3.40;2.20;;;;;;;25.26;25.25;100962.27;109232;1253;61351;-55
2023/05/13 08:15:40;;;;;;;3.80;2.20;;;;;;;25.21;25.48;100961.67;109238;1253;62204;-57
2023/05/13 08:18:07;;;;;;;5.30;2.70;;;;;;;25.42;25.09;100953.77;109195;1253;75216;-55
2023/05/13 08:20:34;;;;;;;4.20;2.30;;;;;;;25.82;25.40;100957.81;109295;1253;69654;-61
2023/05/13 08:23:01;;;;;;;4.30;2.30;;;;;;;26.20;25.17;100952.11;109306;1253;75105;-55
2023/05/13 08:25:28;;;;;;;3.60;2.50;;;;;;;26.70;24.82;100954.98;109241;1252;62491;-60
2023/05/13 08:27:56;;;;;;;4.30;2.50;;;;;;;26.99;23.99;100946.95;109282;1253;61481;-56
2023/05/13 08:30:23;;;;;;;4.20;2.60;;;;;;;27.22;23.37;100947.95;109304;1253;75667;-54
2023/05/13 08:32:50;;;;;;;3.60;2.40;;;;;;;27.43;22.87;100938.88;109235;1255;69753;-54
2023/05/13 08:35:17;;;;;;;4.50;3.10;;;;;;;27.87;22.61;100936.18;108971;1253;75136;-55
2023/05/13 08:37:44;;;;;;;3.70;2.90;;;;;;;28.26;21.97;100928.51;109254;1253;61358;-55
2023/05/13 08:40:11;;;;;;;4.60;3.00;;;;;;;28.46;22.38;100927.19;109124;1253;61075;-55
2023/05/13 08:42:41;;;;;;;4.10;2.80;;;;;;;28.86;22.42;100921.27;109153;1253;74461;-55
2023/05/13 08:45:09;;;;;;;4.60;3.10;;;;;;;29.19;22.50;100920.71;109198;1253;69058;-55
2023/05/13 08:47:56;;;;;;;4.80;3.10;;;;;;;29.54;22.23;100924.15;109198;1253;75500;-55
2023/05/13 08:50:23;;;;;;;5.00;2.50;;;;;;;30.22;21.87;100919.31;109107;1254;62473;-54
2023/05/13 08:52:51;;;;;;;4.00;2.60;;;;;;;30.82;20.41;100919.66;109241;1253;61438;-56
2023/05/13 08:55:18;;;;;;;4.40;3.10;;;;;;;30.87;19.97;100914.89;109169;1253;74712;-55
2023/05/13 08:57:46;;;;;;;5.80;3.00;;;;;;;30.61;20.13;100909.34;109336;1253;68614;-54
2023/05/13 09:00:13;;;;;;;5.60;3.00;;;;;;;30.61;20.44;100904.59;109144;1253;73666;-56
2023/05/13 09:02:40;;;;;;;6.90;2.80;;;;;;;30.67;20.04;100900.80;109322;1253;62445;-55
2023/05/13 09:05:08;;;;;;;4.30;2.90;;;;;;;30.59;20.38;100898.13;109280;1253;62104;-55
2023/05/13 09:07:36;;;;;;;5.00;2.80;;;;;;;30.81;20.27;100891.70;109158;1253;75299;-55
2023/05/13 09:10:04;;;;;;;4.40;3.00;;;;;;;30.99;19.99;100885.42;109247;1253;69095;-59
2023/05/13 09:12:50;;;;;;;3.90;2.70;;;;;;;31.14;20.06;100880.86;109291;1253;74372;-54
2023/05/13 09:15:22;;;;;;;5.20;2.90;;;;;;;31.26;20.04;100883.71;109252;1253;62242;-55
2023/05/13 09:17:51;;;;;;;5.40;3.30;;;;;;;31.13;20.72;100879.77;109081;1257;213854;-59
2023/05/13 09:20:19;;;;;;;4.00;2.90;;;;;;;31.03;20.70;100873.21;109059;1253;76204;-55
2023/05/13 09:22:48;;;;;;;5.40;2.80;;;;;;;31.04;20.60;100867.04;109167;1253;67329;-61
2023/05/13 09:25:16;;;;;;;6.50;3.00;;;;;;;30.86;20.90;100859.02;109235;1253;75227;-56
2023/05/13 09:27:49;;;;;;;5.40;3.30;;;;;;;30.87;20.86;100857.77;109227;1253;62179;-57
2023/05/13 09:30:16;;;;;;;4.20;2.80;;;;;;;30.69;21.24;100863.11;109140;1253;61369;-56
2023/05/13 09:32:43;;;;;;;4.40;3.00;;;;;;;30.21;20.82;100865.08;109046;1253;75036;-59
2023/05/13 09:35:15;;;;;;;5.30;2.50;;;;;;;29.83;21.12;100856.81;109081;1253;69172;-57
2023/05/13 09:37:46;;;;;;;4.70;2.60;;;;;;;30.09;21.21;100858.36;109094;1253;74943;-60
2023/05/13 09:40:14;;;;;;;5.00;3.10;;;;;;;30.41;21.11;100854.94;108875;1253;62907;-57
2023/05/13 09:42:43;;;;;;;3.60;2.50;;;;;;;30.38;20.92;100856.94;109125;1253;62206;-56
2023/05/13 09:45:13;;;;;;;3.90;2.70;;;;;;;30.44;20.26;100848.52;109178;1253;75835;-56
2023/05/13 09:47:40;;;;;;;;;;;;;;;30.85;20.60;100840.73;109043;1253;68446;-55
2023/05/13 09:50:08;;;;;;;3.90;2.80;;;;;;;31.43;19.85;100829.75;109118;1253;74784;-57
2023/05/13 09:52:36;;;;;;;4.00;2.50;;;;;;;31.90;19.43;100831.06;109118;1253;61240;-57
2023/05/13 09:55:07;;;;;;;4.00;3.00;;;;;;;32.15;19.08;100829.33;109292;1253;62141;-56
2023/05/13 09:57:34;;;;;;;5.20;2.70;;;;;;;32.09;18.57;100827.54;109194;1253;74724;-57
2023/05/13 10:00:05;;;;;;;3.80;2.50;;;;;;;31.62;19.10;100825.54;109158;1253;69105;-59
2023/05/13 10:02:38;;;;;;;6.30;3.00;;;;;;;31.24;19.08;100821.96;109104;1253;73979;-56
2023/05/13 10:05:06;;;;;;;3.80;2.50;;;;;;;31.17;19.80;100815.72;109242;1253;61479;-56
2023/05/13 10:07:33;;;;;;;3.80;2.50;;;;;;;31.10;19.82;100816.78;108959;1253;61180;-55
2023/05/13 10:10:01;;;;;;;4.40;2.80;;;;;;;30.81;20.10;100818.23;109306;1253;73831;-60
2023/05/13 10:12:30;;;;;;;3.40;2.40;;;;;;;30.74;20.41;100820.15;109149;1253;67921;-60
2023/05/13 10:14:57;;;;;;;3.30;2.30;;;;;;;30.85;20.37;100816.98;109154;1253;73751;-56
2023/05/13 10:17:24;;;;;;;3.10;2.30;;;;;;;30.81;19.73;100815.20;109342;1253;61181;-55
2023/05/13 10:19:52;;;;;;;3.60;2.40;;;;;;;30.18;20.16;100812.14;109328;1252;61213;-55
2023/05/13 10:22:30;;;;;;;3.30;2.30;;;;;;;29.50;21.51;100820.20;109247;1253;75345;-58
2023/05/13 10:24:58;;;;;;;3.60;2.50;;;;;;;28.91;22.15;100815.04;109217;1253;67856;-56
2023/05/13 10:27:27;;;;;;;3.70;2.50;;;;;;;28.75;22.06;100816.14;109349;1253;73507;-55
2023/05/13 10:29:54;;;;;;;3.80;2.40;;;;;;;28.85;21.92;100814.84;109171;1252;61353;-59
2023/05/13 10:32:23;;;;;;;4.30;2.70;;;;;;;28.70;21.82;100818.61;109223;1253;62319;-54
2023/05/13 10:35:03;;;;;;;7.30;4.10;;;;;;;28.39;22.05;100814.79;109083;1253;75915;-58
2023/05/13 10:37:43;;;;;;;3.70;2.50;;;;;;;28.17;22.32;100816.09;109145;1258;68109;-61
2023/05/13 10:40:47;;;;;;;4.50;2.30;;;;;;;27.98;22.67;100810.67;109273;1253;74834;-60
2023/05/13 10:43:21;;;;;;;3.50;1.90;;;;;;;28.39;22.47;100804.72;109248;1253;61272;-54
2023/05/13 10:45:50;;;;;;;3.40;2.20;;;;;;;28.67;22.34;100810.39;109107;1254;62434;-54
2023/05/13 10:48:17;;;;;;;4.20;2.30;;;;;;;28.60;22.65;100809.58;109309;1257;76430;-57
2023/05/13 10:50:55;;;;;;;4.30;2.50;;;;;;;28.21;23.22;100813.88;109110;1252;67973;-60
2023/05/13 10:53:30;;;;;;;2.80;2.10;;;;;;;27.89;22.90;100813.46;109230;1255;74773;-55
2023/05/13 10:55:58;;;;;;;4.50;2.10;;;;;;;27.79;22.62;100812.77;109075;1254;61188;-54
2023/05/13 10:58:29;;;;;;;2.70;1.90;;;;;;;27.70;23.19;100809.93;109057;1253;61060;-56
2023/05/13 11:01:14;;;;;;;4.30;2.00;;;;;;;27.54;22.30;100805.66;109177;1253;75694;-60
2023/05/13 11:03:50;;;;;;;2.90;1.90;;;;;;;27.45;22.23;100800.98;109291;1254;68222;-57
2023/05/13 11:06:22;;;;;;;3.10;2.20;;;;;;;27.76;22.44;100800.69;109211;1253;74450;-57
2023/05/13 11:08:50;;;;;;;3.60;1.70;;;;;;;28.39;22.15;100797.25;109158;1253;61443;-61
2023/05/13 11:11:23;;;;;;;3.80;2.50;;;;;;;28.93;21.36;100793.16;109266;1254;62412;-57
2023/05/13 11:13:51;;;;;;;3.80;2.20;;;;;;;29.00;21.60;100788.40;109281;1254;75996;-56
2023/05/13 11:16:18;;;;;;;3.10;2.20;;;;;;;29.13;21.50;100790.16;109173;1255;67924;-57